sensor_id;sensor_type;location;lat;lon;timestamp;pressure;altitude;pressure_sealevel;temperature;humidity
9721;BME280;4899;42.644;23.366;2023-04-07T00:02:02;93965.97;;;2.74;57.20
9721;BME280;4899;42.644;23.366;2023-04-07T00:04:28;93978.66;;;2.74;56.29
9721;BME280;4899;42.644;23.366;2023-04-07T00:06:53;93978.59;;;2.85;56.13
9721;BME280;4899;42.644;23.366;2023-04-07T00:09:18;93966.91;;;2.84;56.41
9721;BME280;4899;42.644;23.366;2023-04-07T00:11:44;93974.56;;;2.78;56.04
9721;BME280;4899;42.644;23.366;2023-04-07T00:14:10;93960.84;;;2.80;55.42
9721;BME280;4899;42.644;23.366;2023-04-07T00:16:35;93967.00;;;2.73;56.16
9721;BME280;4899;42.644;23.366;2023-04-07T00:19:00;93973.50;;;2.85;55.86
9721;BME280;4899;42.644;23.366;2023-04-07T00:21:26;93964.44;;;2.73;55.67
9721;BME280;4899;42.644;23.366;2023-04-07T00:23:52;93947.34;;;2.84;55.85
9721;BME280;4899;42.644;23.366;2023-04-07T00:26:17;93974.53;;;2.84;55.06
9721;BME280;4899;42.644;23.366;2023-04-07T00:28:43;93965.84;;;2.90;54.87
9721;BME280;4899;42.644;23.366;2023-04-07T00:31:08;93959.78;;;2.86;55.40
9721;BME280;4899;42.644;23.366;2023-04-07T00:33:33;93964.34;;;2.89;55.75
9721;BME280;4899;42.644;23.366;2023-04-07T00:35:59;93959.56;;;2.82;55.53
9721;BME280;4899;42.644;23.366;2023-04-07T00:38:24;93955.47;;;2.86;54.84
9721;BME280;4899;42.644;23.366;2023-04-07T00:40:59;93958.03;;;2.81;55.41
9721;BME280;4899;42.644;23.366;2023-04-07T00:43:25;93943.13;;;2.74;55.80
9721;BME280;4899;42.644;23.366;2023-04-07T00:45:51;93963.44;;;2.74;55.39
9721;BME280;4899;42.644;23.366;2023-04-07T00:48:17;93957.59;;;2.74;54.65
9721;BME280;4899;42.644;23.366;2023-04-07T00:50:44;93960.84;;;2.80;54.63
9721;BME280;4899;42.644;23.366;2023-04-07T00:53:11;93968.91;;;2.87;54.90
9721;BME280;4899;42.644;23.366;2023-04-07T00:55:36;93968.38;;;2.90;54.92
9721;BME280;4899;42.644;23.366;2023-04-07T00:58:02;93957.03;;;2.82;54.70
9721;BME280;4899;42.644;23.366;2023-04-07T01:00:32;93972.81;;;2.74;55.27
9721;BME280;4899;42.644;23.366;2023-04-07T01:03:05;93959.88;;;2.75;54.72
9721;BME280;4899;42.644;23.366;2023-04-07T01:05:52;93959.56;;;2.82;55.69
9721;BME280;4899;42.644;23.366;2023-04-07T01:08:20;93954.75;;;2.81;55.56
9721;BME280;4899;42.644;23.366;2023-04-07T01:10:51;93960.63;;;2.76;55.85
9721;BME280;4899;42.644;23.366;2023-04-07T01:15:54;93939.09;;;2.63;55.52
9721;BME280;4899;42.644;23.366;2023-04-07T01:18:26;93947.44;;;2.74;55.18
9721;BME280;4899;42.644;23.366;2023-04-07T01:20:55;93953.31;;;2.64;55.34
9721;BME280;4899;42.644;23.366;2023-04-07T01:26:29;93960.41;;;2.67;54.80
9721;BME280;4899;42.644;23.366;2023-04-07T01:29:22;93944.31;;;2.82;54.65
9721;BME280;4899;42.644;23.366;2023-04-07T01:31:50;93939.75;;;2.84;55.53
9721;BME280;4899;42.644;23.366;2023-04-07T01:34:16;93944.56;;;2.86;56.00
9721;BME280;4899;42.644;23.366;2023-04-07T01:36:42;93927.84;;;2.80;55.75
9721;BME280;4899;42.644;23.366;2023-04-07T01:39:10;93927.63;;;2.76;55.93
9721;BME280;4899;42.644;23.366;2023-04-07T01:41:37;93942.81;;;2.81;55.92
9721;BME280;4899;42.644;23.366;2023-04-07T01:44:03;93935.69;;;2.83;55.66
9721;BME280;4899;42.644;23.366;2023-04-07T01:46:31;93934.91;;;2.83;56.52
9721;BME280;4899;42.644;23.366;2023-04-07T01:48:56;93929.09;;;2.82;54.99
9721;BME280;4899;42.644;23.366;2023-04-07T01:51:24;93935.59;;;2.93;56.01
9721;BME280;4899;42.644;23.366;2023-04-07T01:53:51;93934.09;;;2.92;56.17
9721;BME280;4899;42.644;23.366;2023-04-07T01:56:17;93917.59;;;2.90;56.15
9721;BME280;4899;42.644;23.366;2023-04-07T01:58:42;93926.50;;;2.87;56.08
9721;BME280;4899;42.644;23.366;2023-04-07T02:01:08;93936.66;;;2.87;55.67
9721;BME280;4899;42.644;23.366;2023-04-07T02:03:42;93927.19;;;2.98;55.63
9721;BME280;4899;42.644;23.366;2023-04-07T02:06:12;93891.41;;;2.60;55.02
9721;BME280;4899;42.644;23.366;2023-04-07T02:08:46;93917.25;;;3.01;56.60
9721;BME280;4899;42.644;23.366;2023-04-07T02:11:14;93925.75;;;2.87;57.81
9721;BME280;4899;42.644;23.366;2023-04-07T02:13:43;93926.28;;;2.84;57.94
9721;BME280;4899;42.644;23.366;2023-04-07T02:16:09;93920.72;;;2.82;59.02
9721;BME280;4899;42.644;23.366;2023-04-07T02:18:36;93924.31;;;2.75;59.35
9721;BME280;4899;42.644;23.366;2023-04-07T02:21:03;93929.00;;;2.58;62.55
9721;BME280;4899;42.644;23.366;2023-04-07T02:23:28;93920.94;;;2.46;62.53
9721;BME280;4899;42.644;23.366;2023-04-07T02:25:56;93919.41;;;2.45;61.46
9721;BME280;4899;42.644;23.366;2023-04-07T02:28:22;93910.50;;;2.47;59.77
9721;BME280;4899;42.644;23.366;2023-04-07T02:30:48;93908.75;;;2.48;61.45
9721;BME280;4899;42.644;23.366;2023-04-07T02:33:13;93906.00;;;2.39;65.70
9721;BME280;4899;42.644;23.366;2023-04-07T02:35:39;93912.84;;;2.39;61.76
9721;BME280;4899;42.644;23.366;2023-04-07T02:38:04;93922.97;;;2.44;62.17
9721;BME280;4899;42.644;23.366;2023-04-07T02:40:30;93916.88;;;2.50;61.07
9721;BME280;4899;42.644;23.366;2023-04-07T02:42:55;93922.44;;;2.52;63.50
9721;BME280;4899;42.644;23.366;2023-04-07T02:45:22;93915.34;;;2.44;62.14
9721;BME280;4899;42.644;23.366;2023-04-07T02:47:47;93910.53;;;2.42;62.99
9721;BME280;4899;42.644;23.366;2023-04-07T02:50:13;93920.91;;;2.51;62.49
9721;BME280;4899;42.644;23.366;2023-04-07T02:52:38;93911.78;;;2.45;64.83
9721;BME280;4899;42.644;23.366;2023-04-07T02:55:04;93924.75;;;2.49;66.38
9721;BME280;4899;42.644;23.366;2023-04-07T02:57:30;93934.91;;;2.49;67.96
9721;BME280;4899;42.644;23.366;2023-04-07T02:59:55;93930.84;;;2.42;69.52
9721;BME280;4899;42.644;23.366;2023-04-07T03:02:22;93929.84;;;2.38;73.23
9721;BME280;4899;42.644;23.366;2023-04-07T03:04:50;93929.84;;;2.38;74.51
9721;BME280;4899;42.644;23.366;2023-04-07T03:07:16;93932.16;;;2.35;77.73
9721;BME280;4899;42.644;23.366;2023-04-07T03:09:42;93942.88;;;2.27;80.52
9721;BME280;4899;42.644;23.366;2023-04-07T03:12:07;93921.31;;;2.19;83.04
9721;BME280;4899;42.644;23.366;2023-04-07T03:14:33;93928.44;;;2.17;85.42
9721;BME280;4899;42.644;23.366;2023-04-07T03:16:58;93923.94;;;2.04;86.94
9721;BME280;4899;42.644;23.366;2023-04-07T03:19:23;93922.69;;;1.96;86.86
9721;BME280;4899;42.644;23.366;2023-04-07T03:21:49;93939.34;;;2.17;81.42
9721;BME280;4899;42.644;23.366;2023-04-07T03:24:15;93937.31;;;2.20;83.28
9721;BME280;4899;42.644;23.366;2023-04-07T03:26:41;93931.25;;;2.10;85.25
9721;BME280;4899;42.644;23.366;2023-04-07T03:29:06;93919.34;;;2.11;79.49
9721;BME280;4899;42.644;23.366;2023-04-07T03:31:33;93929.97;;;2.18;79.21
9721;BME280;4899;42.644;23.366;2023-04-07T03:33:58;93927.91;;;2.25;74.89
9721;BME280;4899;42.644;23.366;2023-04-07T03:36:24;93917.50;;;2.27;72.69
9721;BME280;4899;42.644;23.366;2023-04-07T03:38:49;93923.78;;;2.34;69.72
9721;BME280;4899;42.644;23.366;2023-04-07T03:41:15;93923.03;;;2.34;64.19
9721;BME280;4899;42.644;23.366;2023-04-07T03:43:40;93921.41;;;2.53;62.62
9721;BME280;4899;42.644;23.366;2023-04-07T03:46:06;93930.72;;;2.63;60.81
9721;BME280;4899;42.644;23.366;2023-04-07T03:48:32;93932.97;;;2.74;61.42
9721;BME280;4899;42.644;23.366;2023-04-07T03:50:58;93929.41;;;2.75;60.39
9721;BME280;4899;42.644;23.366;2023-04-07T03:53:24;93938.53;;;2.71;61.15
9721;BME280;4899;42.644;23.366;2023-04-07T03:55:50;93943.13;;;2.74;60.01
9721;BME280;4899;42.644;23.366;2023-04-07T03:58:16;93940.56;;;2.74;59.48
9721;BME280;4899;42.644;23.366;2023-04-07T04:00:41;93943.47;;;2.92;58.71
9721;BME280;4899;42.644;23.366;2023-04-07T04:03:07;93953.59;;;2.97;58.53
9721;BME280;4899;42.644;23.366;2023-04-07T04:05:32;93912.66;;;2.74;59.25
9721;BME280;4899;42.644;23.366;2023-04-07T04:07:58;93950.50;;;3.05;58.52
9721;BME280;4899;42.644;23.366;2023-04-07T04:10:23;93942.13;;;3.04;58.69
9721;BME280;4899;42.644;23.366;2023-04-07T04:12:49;93951.28;;;3.05;58.83
9721;BME280;4899;42.644;23.366;2023-04-07T04:15:15;93944.72;;;2.99;59.44
9721;BME280;4899;42.644;23.366;2023-04-07T04:17:41;93950.31;;;2.96;58.46
9721;BME280;4899;42.644;23.366;2023-04-07T04:20:07;93937.38;;;2.98;59.31
9721;BME280;4899;42.644;23.366;2023-04-07T04:22:33;93954.63;;;2.96;60.29
9721;BME280;4899;42.644;23.366;2023-04-07T04:24:59;93951.44;;;2.80;63.79
9721;BME280;4899;42.644;23.366;2023-04-07T04:27:25;93951.22;;;2.76;65.09
9721;BME280;4899;42.644;23.366;2023-04-07T04:29:51;93949.72;;;2.70;66.62
9721;BME280;4899;42.644;23.366;2023-04-07T04:32:18;93954.28;;;2.73;65.76
9721;BME280;4899;42.644;23.366;2023-04-07T04:34:43;93937.09;;;2.60;68.08
9721;BME280;4899;42.644;23.366;2023-04-07T04:37:09;93955.81;;;2.69;68.22
9721;BME280;4899;42.644;23.366;2023-04-07T04:39:34;93950.06;;;2.59;72.07
9721;BME280;4899;42.644;23.366;2023-04-07T04:42:00;93965.00;;;2.65;75.98
9721;BME280;4899;42.644;23.366;2023-04-07T04:44:26;93961.97;;;2.63;78.72
9721;BME280;4899;42.644;23.366;2023-04-07T04:46:52;93966.03;;;2.59;76.68
9721;BME280;4899;42.644;23.366;2023-04-07T04:49:17;93951.34;;;2.56;76.07
9721;BME280;4899;42.644;23.366;2023-04-07T04:51:44;93966.72;;;2.70;75.29
9721;BME280;4899;42.644;23.366;2023-04-07T04:54:09;93948.25;;;2.64;74.82
9721;BME280;4899;42.644;23.366;2023-04-07T04:56:35;93971.53;;;2.71;77.35
9721;BME280;4899;42.644;23.366;2023-04-07T04:59:01;93974.63;;;2.68;76.67
9721;BME280;4899;42.644;23.366;2023-04-07T05:01:27;93972.34;;;2.67;76.72
9721;BME280;4899;42.644;23.366;2023-04-07T05:03:52;93972.63;;;2.60;77.56
9721;BME280;4899;42.644;23.366;2023-04-07T05:06:18;93973.69;;;2.54;76.44
9721;BME280;4899;42.644;23.366;2023-04-07T05:08:43;93964.34;;;2.44;76.48
9721;BME280;4899;42.644;23.366;2023-04-07T05:11:11;93969.38;;;2.55;74.54
9721;BME280;4899;42.644;23.366;2023-04-07T05:13:36;93977.69;;;2.65;73.35
9721;BME280;4899;42.644;23.366;2023-04-07T05:16:02;93985.25;;;2.75;73.35
9721;BME280;4899;42.644;23.366;2023-04-07T05:18:27;93970.78;;;2.71;72.63
9721;BME280;4899;42.644;23.366;2023-04-07T05:20:53;93996.41;;;2.80;73.84
9721;BME280;4899;42.644;23.366;2023-04-07T05:23:18;94001.41;;;2.90;74.32
9721;BME280;4899;42.644;23.366;2023-04-07T05:25:44;93998.06;;;2.99;75.56
9721;BME280;4899;42.644;23.366;2023-04-07T05:28:09;94003.09;;;3.04;76.43
9721;BME280;4899;42.644;23.366;2023-04-07T05:30:35;93994.16;;;3.12;77.76
9721;BME280;4899;42.644;23.366;2023-04-07T05:33:01;94003.72;;;3.25;76.56
9721;BME280;4899;42.644;23.366;2023-04-07T05:35:27;94007.47;;;3.33;78.07
9721;BME280;4899;42.644;23.366;2023-04-07T05:37:52;94011.22;;;3.40;77.83
9721;BME280;4899;42.644;23.366;2023-04-07T05:40:18;94001.19;;;3.54;77.86
9721;BME280;4899;42.644;23.366;2023-04-07T05:42:43;94004.41;;;3.65;76.06
9721;BME280;4899;42.644;23.366;2023-04-07T05:45:09;94004.31;;;3.75;76.22
9721;BME280;4899;42.644;23.366;2023-04-07T05:47:35;94003.19;;;3.86;74.47
9721;BME280;4899;42.644;23.366;2023-04-07T05:50:00;93995.44;;;3.96;74.00
9721;BME280;4899;42.644;23.366;2023-04-07T05:52:26;93996.25;;;4.16;72.84
9721;BME280;4899;42.644;23.366;2023-04-07T05:54:51;93998.91;;;4.29;71.97
9721;BME280;4899;42.644;23.366;2023-04-07T05:57:16;94003.47;;;4.32;71.80
9721;BME280;4899;42.644;23.366;2023-04-07T05:59:42;94004.16;;;4.38;71.98
9721;BME280;4899;42.644;23.366;2023-04-07T06:02:08;93999.34;;;4.37;72.38
9721;BME280;4899;42.644;23.366;2023-04-07T06:04:33;93995.28;;;4.36;72.00
9721;BME280;4899;42.644;23.366;2023-04-07T06:07:00;93997.00;;;4.40;70.89
9721;BME280;4899;42.644;23.366;2023-04-07T06:09:26;94006.91;;;4.42;70.14
9721;BME280;4899;42.644;23.366;2023-04-07T06:11:51;94008.03;;;4.54;69.90
9721;BME280;4899;42.644;23.366;2023-04-07T06:14:17;94004.19;;;4.57;68.12
9721;BME280;4899;42.644;23.366;2023-04-07T06:16:43;93998.00;;;4.63;66.52
9721;BME280;4899;42.644;23.366;2023-04-07T06:19:08;94004.75;;;4.73;65.66
9721;BME280;4899;42.644;23.366;2023-04-07T06:21:34;94003.94;;;4.77;65.38
9721;BME280;4899;42.644;23.366;2023-04-07T06:23:59;94003.50;;;4.89;65.88
9721;BME280;4899;42.644;23.366;2023-04-07T06:26:25;94001.13;;;4.98;65.79
9721;BME280;4899;42.644;23.366;2023-04-07T06:28:52;94001.22;;;5.06;65.20
9721;BME280;4899;42.644;23.366;2023-04-07T06:31:17;94005.00;;;5.28;64.14
9721;BME280;4899;42.644;23.366;2023-04-07T06:33:43;93993.41;;;5.35;62.63
9721;BME280;4899;42.644;23.366;2023-04-07T06:36:12;93996.56;;;5.46;62.73
9721;BME280;4899;42.644;23.366;2023-04-07T06:38:38;93986.16;;;5.42;61.75
9721;BME280;4899;42.644;23.366;2023-04-07T06:41:03;94006.25;;;5.44;62.20
9721;BME280;4899;42.644;23.366;2023-04-07T06:43:29;93994.53;;;5.29;62.96
9721;BME280;4899;42.644;23.366;2023-04-07T06:45:55;93999.34;;;5.31;63.24
9721;BME280;4899;42.644;23.366;2023-04-07T06:48:21;93997.84;;;5.30;63.11
9721;BME280;4899;42.644;23.366;2023-04-07T06:50:50;94002.28;;;5.38;62.28
9721;BME280;4899;42.644;23.366;2023-04-07T06:53:16;93997.53;;;5.50;62.61
9721;BME280;4899;42.644;23.366;2023-04-07T06:55:41;93992.13;;;5.51;62.19
9721;BME280;4899;42.644;23.366;2023-04-07T06:58:07;94011.81;;;5.65;61.34
9721;BME280;4899;42.644;23.366;2023-04-07T07:00:32;94013.34;;;5.79;61.29
9721;BME280;4899;42.644;23.366;2023-04-07T07:02:58;94012.84;;;5.96;60.65
9721;BME280;4899;42.644;23.366;2023-04-07T07:05:23;94005.94;;;6.10;60.43
9721;BME280;4899;42.644;23.366;2023-04-07T07:07:49;94005.00;;;6.34;60.34
9721;BME280;4899;42.644;23.366;2023-04-07T07:10:16;94008.31;;;6.48;59.73
9721;BME280;4899;42.644;23.366;2023-04-07T07:12:41;94011.81;;;6.52;59.90
9721;BME280;4899;42.644;23.366;2023-04-07T07:15:07;94011.06;;;6.52;59.05
9721;BME280;4899;42.644;23.366;2023-04-07T07:17:33;94034.31;;;6.50;58.18
9721;BME280;4899;42.644;23.366;2023-04-07T07:19:58;94015.88;;;6.53;59.07
9721;BME280;4899;42.644;23.366;2023-04-07T07:22:23;94018.97;;;6.64;55.23
9721;BME280;4899;42.644;23.366;2023-04-07T07:24:49;94016.81;;;6.71;55.98
9721;BME280;4899;42.644;23.366;2023-04-07T07:27:15;94020.19;;;6.80;54.80
9721;BME280;4899;42.644;23.366;2023-04-07T07:29:41;94032.03;;;6.76;51.58
9721;BME280;4899;42.644;23.366;2023-04-07T07:32:06;94047.53;;;6.79;49.80
9721;BME280;4899;42.644;23.366;2023-04-07T07:34:32;94041.31;;;6.72;51.07
9721;BME280;4899;42.644;23.366;2023-04-07T07:36:57;94035.50;;;6.80;51.50
9721;BME280;4899;42.644;23.366;2023-04-07T07:39:24;94044.88;;;6.98;49.86
9721;BME280;4899;42.644;23.366;2023-04-07T07:41:50;94041.09;;;7.18;48.30
9721;BME280;4899;42.644;23.366;2023-04-07T07:44:16;94044.75;;;7.03;48.33
9721;BME280;4899;42.644;23.366;2023-04-07T07:46:41;94049.72;;;7.22;48.48
9721;BME280;4899;42.644;23.366;2023-04-07T07:49:07;94036.09;;;7.13;48.36
9721;BME280;4899;42.644;23.366;2023-04-07T07:51:33;94062.00;;;7.56;48.57
9721;BME280;4899;42.644;23.366;2023-04-07T07:53:59;94035.69;;;7.42;47.36
9721;BME280;4899;42.644;23.366;2023-04-07T07:56:24;94050.53;;;7.31;46.56
9721;BME280;4899;42.644;23.366;2023-04-07T07:58:50;94057.88;;;7.10;46.92
9721;BME280;4899;42.644;23.366;2023-04-07T08:01:15;94058.59;;;7.02;46.26
9721;BME280;4899;42.644;23.366;2023-04-07T08:03:41;94062.00;;;7.34;46.67
9721;BME280;4899;42.644;23.366;2023-04-07T08:06:06;94047.69;;;7.78;47.08
9721;BME280;4899;42.644;23.366;2023-04-07T08:08:33;94041.03;;;7.99;48.09
9721;BME280;4899;42.644;23.366;2023-04-07T08:10:59;94055.53;;;8.12;46.94
9721;BME280;4899;42.644;23.366;2023-04-07T08:13:25;94059.91;;;7.81;45.12
9721;BME280;4899;42.644;23.366;2023-04-07T08:15:50;94058.69;;;7.56;45.72
9721;BME280;4899;42.644;23.366;2023-04-07T08:18:16;94060.44;;;7.69;44.76
9721;BME280;4899;42.644;23.366;2023-04-07T08:20:41;94059.59;;;7.82;46.41
9721;BME280;4899;42.644;23.366;2023-04-07T08:23:07;94061.34;;;7.95;45.50
9721;BME280;4899;42.644;23.366;2023-04-07T08:25:33;94065.47;;;8.05;45.29
9721;BME280;4899;42.644;23.366;2023-04-07T08:27:59;94060.44;;;8.31;45.63
9721;BME280;4899;42.644;23.366;2023-04-07T08:30:24;94064.13;;;8.39;44.51
9721;BME280;4899;42.644;23.366;2023-04-07T08:32:51;94053.81;;;8.30;45.10
9721;BME280;4899;42.644;23.366;2023-04-07T08:35:18;94035.06;;;8.43;45.45
9721;BME280;4899;42.644;23.366;2023-04-07T08:37:44;94051.56;;;8.68;44.70
9721;BME280;4899;42.644;23.366;2023-04-07T08:40:09;94053.25;;;8.81;44.42
9721;BME280;4899;42.644;23.366;2023-04-07T08:42:45;94064.94;;;8.56;44.12
9721;BME280;4899;42.644;23.366;2023-04-07T08:45:11;94043.69;;;8.56;45.04
9721;BME280;4899;42.644;23.366;2023-04-07T08:47:39;94054.78;;;9.00;44.43
9721;BME280;4899;42.644;23.366;2023-04-07T08:50:07;94053.56;;;8.97;43.87
9721;BME280;4899;42.644;23.366;2023-04-07T08:52:43;94056.03;;;8.54;43.73
9721;BME280;4899;42.644;23.366;2023-04-07T08:55:11;94055.13;;;8.50;45.15
9721;BME280;4899;42.644;23.366;2023-04-07T08:57:37;94059.06;;;8.25;44.10
9721;BME280;4899;42.644;23.366;2023-04-07T09:00:04;94063.47;;;8.02;43.60
9721;BME280;4899;42.644;23.366;2023-04-07T09:02:34;94051.69;;;8.23;44.26
9721;BME280;4899;42.644;23.366;2023-04-07T09:05:01;94054.69;;;8.56;44.58
9721;BME280;4899;42.644;23.366;2023-04-07T09:07:27;94062.09;;;8.67;44.54
9721;BME280;4899;42.644;23.366;2023-04-07T09:09:54;94055.44;;;8.66;44.07
9721;BME280;4899;42.644;23.366;2023-04-07T09:12:19;94052.47;;;8.72;43.89
9721;BME280;4899;42.644;23.366;2023-04-07T09:14:45;94045.25;;;8.74;44.13
9721;BME280;4899;42.644;23.366;2023-04-07T09:17:10;94070.44;;;8.81;43.30
9721;BME280;4899;42.644;23.366;2023-04-07T09:19:36;94055.38;;;9.14;43.42
9721;BME280;4899;42.644;23.366;2023-04-07T09:22:01;94066.09;;;9.16;42.83
9721;BME280;4899;42.644;23.366;2023-04-07T09:24:28;94055.09;;;9.41;42.88
9721;BME280;4899;42.644;23.366;2023-04-07T09:27:15;94059.91;;;9.00;41.89
9721;BME280;4899;42.644;23.366;2023-04-07T09:29:43;94053.31;;;9.42;43.60
9721;BME280;4899;42.644;23.366;2023-04-07T09:32:09;94064.47;;;9.54;43.24
9721;BME280;4899;42.644;23.366;2023-04-07T09:34:37;94071.41;;;9.28;42.56
9721;BME280;4899;42.644;23.366;2023-04-07T09:37:05;94070.03;;;9.05;41.94
9721;BME280;4899;42.644;23.366;2023-04-07T09:39:31;94069.16;;;9.18;43.59
9721;BME280;4899;42.644;23.366;2023-04-07T09:41:57;94066.41;;;9.06;42.66
9721;BME280;4899;42.644;23.366;2023-04-07T09:44:24;94072.59;;;9.13;43.31
9721;BME280;4899;42.644;23.366;2023-04-07T09:46:55;94054.63;;;9.39;43.13
9721;BME280;4899;42.644;23.366;2023-04-07T09:49:23;94067.94;;;9.59;43.05
9721;BME280;4899;42.644;23.366;2023-04-07T09:52:06;94069.72;;;9.41;43.45
9721;BME280;4899;42.644;23.366;2023-04-07T09:54:37;94071.41;;;9.28;44.18
9721;BME280;4899;42.644;23.366;2023-04-07T09:57:05;94075.63;;;9.33;44.10
9721;BME280;4899;42.644;23.366;2023-04-07T09:59:32;94074.56;;;8.99;44.12
9721;BME280;4899;42.644;23.366;2023-04-07T10:01:57;94074.50;;;8.73;44.00
9721;BME280;4899;42.644;23.366;2023-04-07T10:04:23;94078.94;;;9.07;44.49
9721;BME280;4899;42.644;23.366;2023-04-07T10:06:51;94064.00;;;9.52;44.13
9721;BME280;4899;42.644;23.366;2023-04-07T10:09:17;94078.19;;;9.41;43.47
9721;BME280;4899;42.644;23.366;2023-04-07T10:11:43;94073.34;;;9.74;43.59
9721;BME280;4899;42.644;23.366;2023-04-07T10:14:10;94073.34;;;9.92;43.42
9721;BME280;4899;42.644;23.366;2023-04-07T10:16:38;94051.41;;;9.94;42.13
9721;BME280;4899;42.644;23.366;2023-04-07T10:19:07;94073.56;;;10.25;43.32
9721;BME280;4899;42.644;23.366;2023-04-07T10:21:38;94070.34;;;10.45;41.62
9721;BME280;4899;42.644;23.366;2023-04-07T10:24:36;94066.22;;;9.88;41.17
9721;BME280;4899;42.644;23.366;2023-04-07T10:27:09;94062.16;;;9.79;42.39
9721;BME280;4899;42.644;23.366;2023-04-07T10:29:40;94069.56;;;9.63;42.52
9721;BME280;4899;42.644;23.366;2023-04-07T10:32:07;94065.97;;;9.55;43.03
9721;BME280;4899;42.644;23.366;2023-04-07T10:37:19;94068.22;;;9.74;43.32
9721;BME280;4899;42.644;23.366;2023-04-07T10:39:49;94073.06;;;9.59;42.78
9721;BME280;4899;42.644;23.366;2023-04-07T10:45:07;94072.75;;;9.60;43.13
9721;BME280;4899;42.644;23.366;2023-04-07T10:47:36;94073.22;;;9.45;43.47
9721;BME280;4899;42.644;23.366;2023-04-07T10:50:21;94053.59;;;9.32;42.95
9721;BME280;4899;42.644;23.366;2023-04-07T10:55:36;94089.69;;;9.52;43.19
9721;BME280;4899;42.644;23.366;2023-04-07T10:58:19;94082.75;;;9.44;41.77
9721;BME280;4899;42.644;23.366;2023-04-07T11:03:27;94085.59;;;9.51;42.75
9721;BME280;4899;42.644;23.366;2023-04-07T11:06:04;94087.25;;;9.39;43.79
9721;BME280;4899;42.644;23.366;2023-04-07T11:11:02;94085.91;;;9.24;44.50
9721;BME280;4899;42.644;23.366;2023-04-07T11:13:43;94083.78;;;9.35;44.85
9721;BME280;4899;42.644;23.366;2023-04-07T11:16:09;94096.44;;;9.14;44.95
9721;BME280;4899;42.644;23.366;2023-04-07T11:18:35;94079.56;;;9.21;45.86
9721;BME280;4899;42.644;23.366;2023-04-07T11:21:02;94083.34;;;9.24;45.11
9721;BME280;4899;42.644;23.366;2023-04-07T11:23:28;94080.31;;;9.22;45.31
9721;BME280;4899;42.644;23.366;2023-04-07T11:26:02;94085.28;;;9.27;44.82
9721;BME280;4899;42.644;23.366;2023-04-07T11:28:29;94084.25;;;9.45;45.78
9721;BME280;4899;42.644;23.366;2023-04-07T11:30:56;94079.88;;;9.54;45.76
9721;BME280;4899;42.644;23.366;2023-04-07T11:33:30;94085.56;;;9.86;44.65
9721;BME280;4899;42.644;23.366;2023-04-07T11:36:01;94094.34;;;9.59;44.81
9721;BME280;4899;42.644;23.366;2023-04-07T11:38:29;94086.06;;;9.71;45.46
9721;BME280;4899;42.644;23.366;2023-04-07T11:40:55;94086.63;;;9.85;45.28
9721;BME280;4899;42.644;23.366;2023-04-07T11:43:26;94093.09;;;10.08;44.89
9721;BME280;4899;42.644;23.366;2023-04-07T11:46:13;94086.41;;;10.16;43.79
9721;BME280;4899;42.644;23.366;2023-04-07T11:48:40;94091.56;;;10.25;44.93
9721;BME280;4899;42.644;23.366;2023-04-07T11:51:14;94084.63;;;10.08;44.08
9721;BME280;4899;42.644;23.366;2023-04-07T11:53:40;94085.41;;;9.91;45.65
9721;BME280;4899;42.644;23.366;2023-04-07T11:56:08;94077.84;;;10.03;45.41
9721;BME280;4899;42.644;23.366;2023-04-07T11:58:37;94076.19;;;9.90;45.16
9721;BME280;4899;42.644;23.366;2023-04-07T12:01:05;94098.53;;;10.24;45.54
9721;BME280;4899;42.644;23.366;2023-04-07T12:03:36;94095.44;;;10.48;44.82
9721;BME280;4899;42.644;23.366;2023-04-07T12:06:02;94078.94;;;10.78;44.21
9721;BME280;4899;42.644;23.366;2023-04-07T12:08:39;94085.69;;;11.13;43.24
9721;BME280;4899;42.644;23.366;2023-04-07T12:11:06;94082.28;;;11.50;42.95
9721;BME280;4899;42.644;23.366;2023-04-07T12:13:33;94089.19;;;11.79;43.50
9721;BME280;4899;42.644;23.366;2023-04-07T12:15:59;94079.28;;;12.14;43.36
9721;BME280;4899;42.644;23.366;2023-04-07T12:18:24;94098.88;;;13.37;42.64
9721;BME280;4899;42.644;23.366;2023-04-07T12:20:51;94092.75;;;12.32;43.19
9721;BME280;4899;42.644;23.366;2023-04-07T12:23:16;94092.75;;;11.87;43.06
9721;BME280;4899;42.644;23.366;2023-04-07T12:25:42;94103.41;;;11.97;43.22
9721;BME280;4899;42.644;23.366;2023-04-07T12:28:07;94069.44;;;11.83;42.84
9721;BME280;4899;42.644;23.366;2023-04-07T12:30:33;94095.13;;;11.92;43.80
9721;BME280;4899;42.644;23.366;2023-04-07T12:32:58;94098.66;;;11.66;43.72
9721;BME280;4899;42.644;23.366;2023-04-07T12:35:24;94097.81;;;11.12;44.20
9721;BME280;4899;42.644;23.366;2023-04-07T12:37:49;94092.59;;;11.00;44.66
9721;BME280;4899;42.644;23.366;2023-04-07T12:40:17;94093.63;;;11.07;44.48
9721;BME280;4899;42.644;23.366;2023-04-07T12:42:42;94081.91;;;10.89;44.35
9721;BME280;4899;42.644;23.366;2023-04-07T12:45:08;94085.22;;;10.90;43.35
9721;BME280;4899;42.644;23.366;2023-04-07T12:47:33;94100.09;;;10.84;44.31
9721;BME280;4899;42.644;23.366;2023-04-07T12:49:59;94099.72;;;10.65;44.53
9721;BME280;4899;42.644;23.366;2023-04-07T12:52:25;94088.94;;;10.80;44.80
9721;BME280;4899;42.644;23.366;2023-04-07T12:54:50;94083.56;;;10.94;44.57
9721;BME280;4899;42.644;23.366;2023-04-07T12:57:17;94094.88;;;11.01;44.59
9721;BME280;4899;42.644;23.366;2023-04-07T12:59:42;94083.03;;;10.79;44.41
9721;BME280;4899;42.644;23.366;2023-04-07T13:02:09;94091.13;;;10.90;44.62
9721;BME280;4899;42.644;23.366;2023-04-07T13:04:37;94110.25;;;11.10;44.43
9721;BME280;4899;42.644;23.366;2023-04-07T13:07:04;94101.72;;;10.68;45.33
9721;BME280;4899;42.644;23.366;2023-04-07T13:09:30;94098.00;;;10.48;44.88
9721;BME280;4899;42.644;23.366;2023-04-07T13:11:56;94107.41;;;10.35;45.08
9721;BME280;4899;42.644;23.366;2023-04-07T13:14:22;94088.66;;;10.35;44.93
9721;BME280;4899;42.644;23.366;2023-04-07T13:16:47;94097.78;;;10.24;45.48
9721;BME280;4899;42.644;23.366;2023-04-07T13:19:13;94096.56;;;10.04;45.57
9721;BME280;4899;42.644;23.366;2023-04-07T13:21:39;94092.91;;;10.31;45.36
9721;BME280;4899;42.644;23.366;2023-04-07T13:24:04;94090.91;;;10.45;45.72
9721;BME280;4899;42.644;23.366;2023-04-07T13:26:30;94122.06;;;10.35;45.89
9721;BME280;4899;42.644;23.366;2023-04-07T13:28:55;94095.19;;;10.24;45.87
9721;BME280;4899;42.644;23.366;2023-04-07T13:31:21;94090.19;;;10.18;45.54
9721;BME280;4899;42.644;23.366;2023-04-07T13:33:47;94096.28;;;9.97;46.16
9721;BME280;4899;42.644;23.366;2023-04-07T13:36:13;94115.78;;;9.80;46.65
9721;BME280;4899;42.644;23.366;2023-04-07T13:38:38;94100.25;;;9.77;46.63